createdAt,value
2018-02-08T00:00:00.187Z,-2.88
2018-02-08T00:01:00.177Z,-2.91
2018-02-08T00:02:00.155Z,-2.99
2018-02-08T00:03:00.438Z,-2.96
2018-02-08T00:03:59.898Z,-2.97
2018-02-08T00:05:00.098Z,-3.06
2018-02-08T00:05:59.825Z,-2.99
2018-02-08T00:07:00.064Z,-2.99
2018-02-08T00:08:00.045Z,-2.94
2018-02-08T00:08:59.792Z,-2.94
2018-02-08T00:10:00.009Z,-3
2018-02-08T00:10:59.745Z,-2.99
2018-02-08T00:11:59.970Z,-2.94
2018-02-08T00:12:59.953Z,-2.99
2018-02-08T00:13:59.933Z,-3.07
2018-02-08T00:14:59.657Z,-3.07
2018-02-08T00:15:59.639Z,-3.06
2018-02-08T00:16:59.874Z,-3.05
2018-02-08T00:17:59.599Z,-3.07
2018-02-08T00:18:59.839Z,-3.05
2018-02-08T00:19:59.559Z,-2.99
2018-02-08T00:20:59.796Z,-3
2018-02-08T00:21:59.535Z,-3.03
2018-02-08T00:22:59.519Z,-3.07
2018-02-08T00:23:59.487Z,-2.96
2018-02-08T00:25:14.381Z,-2.96
2018-02-08T00:25:59.447Z,-3.02
2018-02-08T00:26:59.685Z,-3.03
2018-02-08T00:27:59.412Z,-3.03
2018-02-08T00:28:59.648Z,-3.02
2018-02-08T00:29:59.376Z,-3.15
2018-02-08T00:30:59.617Z,-3.15
2018-02-08T00:31:59.335Z,-3.14
2018-02-08T00:32:59.328Z,-3.09
2018-02-08T00:33:59.801Z,-3.06
2018-02-08T00:34:59.281Z,-3.18
2018-02-08T00:35:59.513Z,-3.27
2018-02-08T00:36:59.504Z,-3.27
2018-02-08T00:37:59.227Z,-3.28
2018-02-08T00:38:59.459Z,-3.25
2018-02-08T00:39:59.442Z,-3.25
2018-02-08T00:40:59.425Z,-3.24
2018-02-08T00:41:59.396Z,-3.23
2018-02-08T00:42:59.130Z,-3.21
2018-02-08T00:43:59.363Z,-3.31
2018-02-08T00:44:59.346Z,-3.18
2018-02-08T00:45:59.322Z,-3.27
2018-02-08T00:46:59.304Z,-3.23
2018-02-08T00:47:59.033Z,-3.33
2018-02-08T00:48:58.761Z,-3.25
2018-02-08T00:49:59.259Z,-3.33
2018-02-08T00:50:59.228Z,-3.3
2018-02-08T00:51:59.219Z,-3.33
2018-02-08T00:52:59.189Z,-3.38
2018-02-08T00:53:59.178Z,-3.42
2018-02-08T00:54:58.897Z,-3.3
2018-02-08T00:55:59.135Z,-3.31
2018-02-08T00:56:59.119Z,-3.41
2018-02-08T00:57:59.097Z,-3.31
2018-02-08T00:58:59.080Z,-3.35
2018-02-08T00:59:59.059Z,-3.36
2018-02-08T01:00:58.794Z,-3.33
2018-02-08T01:01:59.022Z,-3.31
2018-02-08T01:02:59.011Z,-3.35
2018-02-08T01:03:58.730Z,-3.38
2018-02-08T01:04:58.709Z,-3.27
2018-02-08T01:05:58.694Z,-3.36
2018-02-08T01:06:58.921Z,-3.33
2018-02-08T01:07:58.923Z,-3.38
2018-02-08T01:08:58.886Z,-3.45
2018-02-08T01:09:58.623Z,-3.46
2018-02-08T01:10:58.596Z,-3.46
2018-02-08T01:11:58.834Z,-3.38
2018-02-08T01:12:58.811Z,-3.45
2018-02-08T01:13:58.802Z,-3.41
2018-02-08T01:14:58.520Z,-3.42
2018-02-08T01:15:58.762Z,-3.39
2018-02-08T01:16:58.736Z,-3.41
2018-02-08T01:17:58.769Z,-3.53
2018-02-08T01:18:58.702Z,-3.53
2018-02-08T01:19:58.679Z,-3.42
2018-02-08T01:20:58.406Z,-3.49
2018-02-08T01:21:58.388Z,-3.49
2018-02-08T01:22:58.626Z,-3.46
2018-02-08T01:23:58.609Z,-3.46
2018-02-08T01:24:58.582Z,-3.46
2018-02-08T01:25:58.563Z,-3.52
2018-02-08T01:26:58.556Z,-3.49
2018-02-08T01:27:58.272Z,-3.39
2018-02-08T01:28:58.508Z,-3.54
2018-02-08T01:30:58.469Z,-3.42
2018-02-08T01:31:58.450Z,-3.43
2018-02-08T01:32:58.434Z,-3.41
2018-02-08T01:33:58.422Z,-3.39
2018-02-08T01:34:58.188Z,-3.48
2018-02-08T01:35:58.372Z,-3.52
2018-02-08T01:36:58.369Z,-3.52
2018-02-08T01:37:58.083Z,-3.45
2018-02-08T01:38:58.358Z,-3.53
2018-02-08T01:39:58.300Z,-3.48
2018-02-08T01:40:58.288Z,-3.52
2018-02-08T01:41:58.275Z,-3.48
2018-02-08T01:42:58.242Z,-3.49
2018-02-08T01:43:58.231Z,-3.46
2018-02-08T01:44:57.695Z,-3.57
2018-02-08T01:45:58.187Z,-3.48
2018-02-08T01:46:58.171Z,-3.56
2018-02-08T01:47:57.895Z,-3.42
2018-02-08T01:48:57.873Z,-3.52
2018-02-08T01:49:57.863Z,-3.54
2018-02-08T01:50:57.839Z,-3.59
2018-02-08T01:51:58.074Z,-3.52
2018-02-08T01:52:58.045Z,-3.57
2018-02-08T01:53:58.032Z,-3.54
2018-02-08T01:54:58.011Z,-3.57
2018-02-08T01:55:57.995Z,-3.54
2018-02-08T01:56:57.980Z,-3.56
2018-02-08T01:57:57.956Z,-3.56
2018-02-08T01:58:57.689Z,-3.54
2018-02-08T01:59:57.669Z,-3.56
2018-02-08T02:00:57.897Z,-3.59
2018-02-08T02:01:57.879Z,-3.56
2018-02-08T02:02:57.861Z,-3.56
2018-02-08T02:03:57.587Z,-3.53
2018-02-08T02:04:57.570Z,-3.64
2018-02-08T02:05:57.809Z,-3.66
2018-02-08T02:06:57.789Z,-3.57
2018-02-08T02:07:57.769Z,-3.62
2018-02-08T02:08:57.749Z,-3.57
2018-02-08T02:09:57.728Z,-3.6
2018-02-08T02:10:57.705Z,-3.56
2018-02-08T02:11:57.688Z,-3.6
2018-02-08T02:12:57.668Z,-3.64
2018-02-08T02:13:57.397Z,-3.64
2018-02-08T02:14:57.633Z,-3.59
2018-02-08T02:15:57.360Z,-3.59
2018-02-08T02:16:57.338Z,-3.56
2018-02-08T02:17:57.571Z,-3.6
2018-02-08T02:18:57.551Z,-3.59
2018-02-08T02:19:57.534Z,-3.63
2018-02-08T02:20:57.515Z,-3.78
2018-02-08T02:21:57.244Z,-3.59
2018-02-08T02:22:57.227Z,-3.52
2018-02-08T02:23:57.205Z,-3.72
2018-02-08T02:24:56.933Z,-3.66
2018-02-08T02:25:57.164Z,-3.64
2018-02-08T02:26:56.897Z,-3.66
2018-02-08T02:27:57.377Z,-3.6
2018-02-08T02:28:56.853Z,-3.52
2018-02-08T02:29:57.091Z,-3.75
2018-02-08T02:30:57.323Z,-3.59
2018-02-08T02:31:57.310Z,-3.6
2018-02-08T02:32:57.285Z,-3.63
2018-02-08T02:33:57.267Z,-3.59
2018-02-08T02:34:57.254Z,-3.67
2018-02-08T02:35:56.975Z,-3.56
2018-02-08T02:36:57.212Z,-3.66
2018-02-08T02:37:57.207Z,-3.66
2018-02-08T02:38:57.427Z,-3.64
2018-02-08T02:39:57.154Z,-3.56
2018-02-08T02:40:56.876Z,-3.66
2018-02-08T02:41:57.116Z,-3.64
2018-02-08T02:42:57.093Z,-3.64
2018-02-08T02:43:56.613Z,-3.69
2018-02-08T02:44:57.056Z,-3.72
2018-02-08T02:45:57.037Z,-3.6
2018-02-08T02:46:57.018Z,-3.67
2018-02-08T02:47:57.004Z,-3.62
2018-02-08T02:48:56.979Z,-3.6
2018-02-08T02:49:56.710Z,-3.59
2018-02-08T02:50:56.942Z,-3.59
2018-02-08T02:51:56.921Z,-3.59
2018-02-08T02:52:56.901Z,-3.67
2018-02-08T02:53:56.887Z,-3.6
2018-02-08T02:54:56.862Z,-3.56
2018-02-08T02:55:56.847Z,-3.66
2018-02-08T02:56:56.826Z,-3.66
2018-02-08T02:57:56.805Z,-3.75
2018-02-08T02:58:56.796Z,-3.69
2018-02-08T02:59:56.776Z,-3.69
2018-02-08T03:00:56.759Z,-3.69
2018-02-08T03:01:56.730Z,-3.72
2018-02-08T03:02:56.463Z,-3.71
2018-02-08T03:03:56.694Z,-3.76
2018-02-08T03:04:56.420Z,-3.79
2018-02-08T03:05:56.660Z,-3.81
2018-02-08T03:06:56.630Z,-3.79
2018-02-08T03:07:56.611Z,-3.86
2018-02-08T03:08:56.593Z,-3.79
2018-02-08T03:09:56.825Z,-3.79
2018-02-08T03:10:56.574Z,-3.78
2018-02-08T03:11:56.286Z,-3.79
2018-02-08T03:12:56.517Z,-3.78
2018-02-08T03:13:56.244Z,-3.79
2018-02-08T03:14:56.531Z,-3.72
2018-02-08T03:15:56.463Z,-3.81
2018-02-08T03:16:56.439Z,-3.79
2018-02-08T03:17:56.425Z,-3.78
2018-02-08T03:18:56.148Z,-3.78
2018-02-08T03:19:56.384Z,-3.81
2018-02-08T03:20:56.108Z,-3.79
2018-02-08T03:21:56.376Z,-3.75
2018-02-08T03:22:55.822Z,-3.75
2018-02-08T03:23:56.304Z,-3.81
2018-02-08T03:24:56.038Z,-3.82
2018-02-08T03:25:56.267Z,-3.91
2018-02-08T03:26:55.999Z,-3.88
2018-02-08T03:27:56.226Z,-3.81
2018-02-08T03:28:56.208Z,-3.88
2018-02-08T03:29:55.934Z,-3.83
2018-02-08T03:30:56.174Z,-3.93
2018-02-08T03:31:56.154Z,-3.85
2018-02-08T03:32:55.880Z,-3.86
2018-02-08T03:33:56.112Z,-3.86
2018-02-08T03:34:56.093Z,-3.86
2018-02-08T03:35:55.822Z,-3.86
2018-02-08T03:36:56.067Z,-3.83
2018-02-08T03:37:55.783Z,-3.85
2018-02-08T03:38:56.016Z,-3.93
2018-02-08T03:39:55.767Z,-3.91
2018-02-08T03:40:55.977Z,-3.96
2018-02-08T03:41:55.959Z,-3.94
2018-02-08T03:42:55.946Z,-3.94
2018-02-08T03:43:55.921Z,-3.99
2018-02-08T03:44:55.652Z,-3.93
2018-02-08T03:45:55.885Z,-3.94
2018-02-08T03:46:55.865Z,-4.01
2018-02-08T03:47:55.846Z,-4.03
2018-02-08T03:48:55.825Z,-4
2018-02-08T03:49:55.807Z,-3.97
2018-02-08T03:50:55.798Z,-3.99
2018-02-08T03:51:55.762Z,-3.96
2018-02-08T03:52:55.743Z,-4
2018-02-08T03:53:55.474Z,-3.96
2018-02-08T03:54:55.707Z,-4.04
2018-02-08T03:55:55.687Z,-4
2018-02-08T03:56:55.413Z,-4
2018-02-08T03:57:55.394Z,-3.94
2018-02-08T03:58:55.688Z,-3.93
2018-02-08T03:59:55.354Z,-4.03
2018-02-08T04:00:55.595Z,-4
2018-02-08T04:01:55.570Z,-4.07
2018-02-08T04:02:55.553Z,-4.03
2018-02-08T04:03:55.279Z,-4.11
2018-02-08T04:04:55.264Z,-4.18
2018-02-08T04:05:55.497Z,-4.11
2018-02-08T04:06:55.473Z,-4.12
2018-02-08T04:07:55.462Z,-4.15
2018-02-08T04:08:55.436Z,-4.14
2018-02-08T04:09:55.422Z,-4.14
2018-02-08T04:10:55.400Z,-4.15
2018-02-08T04:11:55.379Z,-4.17
2018-02-08T04:12:55.105Z,-4.17
2018-02-08T04:13:55.339Z,-4.1
2018-02-08T04:14:55.066Z,-4.15
2018-02-08T04:15:55.305Z,-4.12
2018-02-08T04:16:55.284Z,-4.11
2018-02-08T04:17:55.262Z,-4.15
2018-02-08T04:18:55.236Z,-4.15
2018-02-08T04:19:54.970Z,-4.15
2018-02-08T04:20:55.205Z,-4.14
2018-02-08T04:21:55.192Z,-4.18
2018-02-08T04:22:54.914Z,-4.12
2018-02-08T04:23:55.145Z,-4.14
2018-02-08T04:24:54.871Z,-4.17
2018-02-08T04:25:54.857Z,-4.18
2018-02-08T04:26:54.833Z,-4.12
2018-02-08T04:27:54.817Z,-4.2
2018-02-08T04:28:54.797Z,-4.21
2018-02-08T04:29:54.774Z,-4.17
2018-02-08T04:30:54.756Z,-4.29
2018-02-08T04:31:54.988Z,-4.25
2018-02-08T04:32:54.965Z,-4.18
2018-02-08T04:33:54.951Z,-4.14
2018-02-08T04:34:54.677Z,-4.21
2018-02-08T04:35:54.659Z,-4.22
2018-02-08T04:36:54.641Z,-4.14
2018-02-08T04:37:54.617Z,-4.22
2018-02-08T04:38:54.852Z,-4.14
2018-02-08T04:39:54.830Z,-4.2
2018-02-08T04:40:54.557Z,-4.17
2018-02-08T04:41:54.539Z,-4.17
2018-02-08T04:42:54.770Z,-4.12
2018-02-08T04:43:54.760Z,-4.24
2018-02-08T04:44:54.736Z,-4.22
2018-02-08T04:45:54.463Z,-4.2
2018-02-08T04:46:54.450Z,-4.28
2018-02-08T04:47:54.677Z,-4.22
2018-02-08T04:48:54.653Z,-4.24
2018-02-08T04:49:54.642Z,-4.3
2018-02-08T04:50:54.617Z,-4.25
2018-02-08T04:51:54.092Z,-4.33
2018-02-08T04:52:54.581Z,-4.28
2018-02-08T04:53:54.309Z,-4.33
2018-02-08T04:54:54.285Z,-4.29
2018-02-08T04:55:54.529Z,-4.28
2018-02-08T04:56:54.250Z,-4.25
2018-02-08T04:57:54.492Z,-4.24
2018-02-08T04:58:54.468Z,-4.28
2018-02-08T04:59:54.441Z,-4.29
2018-02-08T05:00:54.427Z,-4.3
2018-02-08T05:01:54.401Z,-4.29
2018-02-08T05:02:54.127Z,-4.28
2018-02-08T05:03:54.108Z,-4.2
2018-02-08T05:04:54.109Z,-4.18
2018-02-08T05:05:54.070Z,-4.2
2018-02-08T05:06:54.311Z,-4.17
2018-02-08T05:07:54.283Z,-4.21
2018-02-08T05:08:54.267Z,-4.25
2018-02-08T05:09:54.002Z,-4.17
2018-02-08T05:10:53.977Z,-4.24
2018-02-08T05:11:54.263Z,-4.25
2018-02-08T05:12:54.189Z,-4.28
2018-02-08T05:13:54.175Z,-4.22
2018-02-08T05:14:53.893Z,-4.17
2018-02-08T05:15:53.879Z,-4.15
2018-02-08T05:16:54.111Z,-4.2
2018-02-08T05:17:53.848Z,-4.21
2018-02-08T05:18:54.067Z,-4.18
2018-02-08T05:19:54.104Z,-4.28
2018-02-08T05:20:53.779Z,-4.25
2018-02-08T05:21:53.758Z,-4.22
2018-02-08T05:22:53.738Z,-4.25
2018-02-08T05:23:53.973Z,-4.25
2018-02-08T05:24:53.959Z,-4.21
2018-02-08T05:25:53.680Z,-4.21
2018-02-08T05:26:53.914Z,-4.14
2018-02-08T05:27:53.896Z,-4.17
2018-02-08T05:28:53.631Z,-4.15
2018-02-08T05:29:53.856Z,-4.18
2018-02-08T05:30:53.587Z,-4.12
2018-02-08T05:31:53.822Z,-4.15
2018-02-08T05:32:53.541Z,-4.12
2018-02-08T05:33:53.781Z,-4.07
2018-02-08T05:34:53.506Z,-4.04
2018-02-08T05:35:53.486Z,-4.04
2018-02-08T05:36:53.718Z,-4.06
2018-02-08T05:37:53.446Z,-4.04
2018-02-08T05:38:53.428Z,-4.11
2018-02-08T05:39:53.407Z,-3.99
2018-02-08T05:40:53.717Z,-4.01
2018-02-08T05:41:53.619Z,-4.03
2018-02-08T05:42:53.353Z,-3.97
2018-02-08T05:43:53.326Z,-3.94
2018-02-08T05:44:53.565Z,-3.96
2018-02-08T05:45:53.812Z,-3.99
2018-02-08T05:46:53.520Z,-4
2018-02-08T05:47:53.507Z,-3.96
2018-02-08T05:48:53.230Z,-4.01
2018-02-08T05:49:53.464Z,-3.96
2018-02-08T05:50:53.195Z,-4.06
2018-02-08T05:51:53.430Z,-4
2018-02-08T05:52:52.902Z,-4.04
2018-02-08T05:53:53.383Z,-4.01
2018-02-08T05:54:53.374Z,-4.01
2018-02-08T05:55:53.348Z,-4.01
2018-02-08T05:56:53.332Z,-3.99
2018-02-08T05:57:53.310Z,-4.04
2018-02-08T05:58:53.291Z,-4.04
2018-02-08T05:59:53.271Z,-4.03
2018-02-08T06:00:53.258Z,-4
2018-02-08T06:01:53.244Z,-4.06
2018-02-08T06:02:53.213Z,-4.01
2018-02-08T06:03:53.192Z,-3.97
2018-02-08T06:04:53.180Z,-4.04
2018-02-08T06:05:53.160Z,-4.04
2018-02-08T06:06:53.139Z,-4.01
2018-02-08T06:07:52.865Z,-3.9
2018-02-08T06:08:53.100Z,-3.96
2018-02-08T06:09:52.825Z,-4
2018-02-08T06:10:53.054Z,-3.93
2018-02-08T06:11:53.095Z,-3.93
2018-02-08T06:12:52.765Z,-3.91
2018-02-08T06:13:52.749Z,-3.94
2018-02-08T06:14:52.730Z,-3.9
2018-02-08T06:15:52.710Z,-3.93
2018-02-08T06:16:52.942Z,-3.94
2018-02-08T06:17:52.669Z,-3.94
2018-02-08T06:18:52.652Z,-3.97
2018-02-08T06:19:52.882Z,-3.96
2018-02-08T06:20:52.866Z,-3.96
2018-02-08T06:21:52.594Z,-3.94
2018-02-08T06:22:52.572Z,-3.93
2018-02-08T06:23:52.552Z,-3.88
2018-02-08T06:24:52.789Z,-3.96
2018-02-08T06:25:52.514Z,-3.85
2018-02-08T06:27:52.733Z,-3.82
2018-02-08T06:28:52.713Z,-3.83
2018-02-08T06:29:52.435Z,-3.83
2018-02-08T06:30:52.669Z,-3.88
2018-02-08T06:31:52.648Z,-3.86
2018-02-08T06:32:52.677Z,-3.88
2018-02-08T06:33:52.611Z,-3.85
2018-02-08T06:34:52.598Z,-3.85
2018-02-08T06:35:52.321Z,-3.75
2018-02-08T06:36:52.554Z,-3.79
2018-02-08T06:37:52.280Z,-3.79
2018-02-08T06:38:52.521Z,-3.76
2018-02-08T06:39:52.506Z,-3.76
2018-02-08T06:40:52.226Z,-3.75
2018-02-08T06:41:52.460Z,-3.76
2018-02-08T06:42:52.692Z,-3.75
2018-02-08T06:43:52.422Z,-3.78
2018-02-08T06:44:51.892Z,-3.75
2018-02-08T06:45:52.381Z,-3.78
2018-02-08T06:46:52.362Z,-3.67
2018-02-08T06:47:52.101Z,-3.67
2018-02-08T06:48:52.375Z,-3.63
2018-02-08T06:49:52.052Z,-3.64
2018-02-08T06:50:52.310Z,-3.63
2018-02-08T06:51:52.267Z,-3.59
2018-02-08T06:52:51.991Z,-3.76
2018-02-08T06:53:51.975Z,-3.57
2018-02-08T06:54:52.203Z,-3.63
2018-02-08T06:55:52.184Z,-3.57
2018-02-08T06:56:52.168Z,-3.56
2018-02-08T06:57:52.148Z,-3.57
2018-02-08T06:58:51.877Z,-3.53
2018-02-08T06:59:51.855Z,-3.52
2018-02-08T07:00:52.090Z,-3.46
2018-02-08T07:01:52.071Z,-3.43
2018-02-08T07:02:51.799Z,-3.48
2018-02-08T07:03:51.790Z,-3.53
2018-02-08T07:04:51.760Z,-3.48
2018-02-08T07:05:51.744Z,-3.41
2018-02-08T07:06:51.720Z,-3.31
2018-02-08T07:07:51.963Z,-3.35
2018-02-08T07:08:51.941Z,-3.39
2018-02-08T07:09:51.921Z,-3.27
2018-02-08T07:10:51.900Z,-3.24
2018-02-08T07:11:51.625Z,-3.14
2018-02-08T07:12:51.870Z,-3.05
2018-02-08T07:13:51.589Z,-3.06
2018-02-08T07:14:51.578Z,-2.96
2018-02-08T07:15:51.548Z,-2.88
2018-02-08T07:16:51.793Z,-2.81
2018-02-08T07:17:51.769Z,-2.77
2018-02-08T07:18:51.496Z,-2.7
2018-02-08T07:19:51.730Z,-2.74
2018-02-08T07:20:51.709Z,-2.58
2018-02-08T07:21:51.691Z,-2.58
2018-02-08T07:22:51.675Z,-2.5
2018-02-08T07:23:51.399Z,-2.48
2018-02-08T07:24:51.642Z,-2.49
2018-02-08T07:25:51.366Z,-2.43
2018-02-08T07:26:51.344Z,-2.34
2018-02-08T07:27:51.335Z,-2.35
2018-02-08T07:28:51.640Z,-2.32
2018-02-08T07:29:51.547Z,-2.2
2018-02-08T07:30:51.527Z,-2.18
2018-02-08T07:31:51.004Z,-2.23
2018-02-08T07:32:51.497Z,-2.23
2018-02-08T07:33:51.467Z,-2.18
2018-02-08T07:34:51.463Z,-2.16
2018-02-08T07:35:51.180Z,-2.12
2018-02-08T07:36:51.420Z,-2.1
2018-02-08T07:37:51.396Z,-2
2018-02-08T07:38:51.386Z,-1.97
2018-02-08T07:39:50.856Z,-2.1
2018-02-08T07:40:51.354Z,-2.08
2018-02-08T07:41:51.328Z,-2.08
2018-02-08T07:42:51.057Z,-2.05
2018-02-08T07:43:50.788Z,-2.08
2018-02-08T07:44:50.770Z,-2.08
2018-02-08T07:45:51.006Z,-2.02
2018-02-08T07:46:51.240Z,-2.05
2018-02-08T07:47:50.971Z,-2.05
2018-02-08T07:48:51.206Z,-2.06
2018-02-08T07:49:50.936Z,-1.98
2018-02-08T07:50:51.415Z,-1.87
2018-02-08T07:51:50.898Z,-1.92
2018-02-08T07:52:51.136Z,-1.76
2018-02-08T07:53:50.864Z,-1.79
2018-02-08T07:54:51.142Z,-1.7
2018-02-08T07:55:51.083Z,-1.67
2018-02-08T07:56:51.066Z,-1.59
2018-02-08T07:57:50.792Z,-1.52
2018-02-08T07:58:50.779Z,-1.52
2018-02-08T07:59:50.759Z,-1.51
2018-02-08T08:00:50.751Z,-1.64
2018-02-08T08:01:50.729Z,-1.59
2018-02-08T08:02:50.721Z,-1.64
2018-02-08T08:03:50.708Z,-1.62
2018-02-08T08:04:50.922Z,-1.64
2018-02-08T08:05:50.908Z,-1.49
2018-02-08T08:06:50.889Z,-1.58
2018-02-08T08:07:50.623Z,-1.51
2018-02-08T08:08:50.601Z,-1.48
2018-02-08T08:09:50.585Z,-1.41
2018-02-08T08:10:50.816Z,-1.4
2018-02-08T08:11:50.548Z,-1.38
2018-02-08T08:12:50.825Z,-1.35
2018-02-08T08:13:50.775Z,-1.33
2018-02-08T08:14:50.495Z,-1.41
2018-02-08T08:15:50.733Z,-1.4
2018-02-08T08:17:05.124Z,-1.45
2018-02-08T08:17:50.704Z,-1.48
2018-02-08T08:18:50.678Z,-1.55
2018-02-08T08:19:50.405Z,-1.54
2018-02-08T08:20:50.648Z,-1.51
2018-02-08T08:21:50.923Z,-1.46
2018-02-08T08:22:50.102Z,-1.33
2018-02-08T08:23:50.593Z,-1.46
2018-02-08T08:24:50.322Z,-1.35
2018-02-08T08:25:50.053Z,-1.41
2018-02-08T08:26:50.285Z,-1.33
2018-02-08T08:27:50.523Z,-1.35
2018-02-08T08:28:50.511Z,-1.25
2018-02-08T08:29:50.489Z,-1.19
2018-02-08T08:30:50.265Z,-1.1
2018-02-08T08:31:50.453Z,-1.17
2018-02-08T08:32:50.541Z,-1.15
2018-02-08T08:33:50.420Z,-1.16
2018-02-08T08:34:49.899Z,-1.16
2018-02-08T08:35:50.382Z,-1.1
2018-02-08T08:36:50.111Z,-1.07
2018-02-08T08:37:50.346Z,-1.16
2018-02-08T08:38:50.329Z,-0.98
2018-02-08T08:39:50.323Z,-0.97
2018-02-08T08:40:50.301Z,-0.82
2018-02-08T08:41:50.285Z,-0.8
2018-02-08T08:42:50.267Z,-0.65
2018-02-08T08:43:49.740Z,-0.61
2018-02-08T08:44:49.724Z,-0.47
2018-02-08T08:45:50.217Z,-0.4
2018-02-08T08:46:49.942Z,-0.39
2018-02-08T08:47:49.925Z,-0.26
2018-02-08T08:48:49.904Z,-0.29
2018-02-08T08:49:50.148Z,-0.28
2018-02-08T08:50:49.869Z,-0.31
2018-02-08T08:51:49.860Z,-0.16
2018-02-08T08:52:50.139Z,-0.19
2018-02-08T08:53:50.073Z,-0.14
2018-02-08T08:54:50.059Z,-0.08
2018-02-08T08:55:49.798Z,-0.14
2018-02-08T08:56:50.024Z,-0.08
2018-02-08T08:57:50.009Z,-0.05
2018-02-08T08:58:49.993Z,0.08
2018-02-08T08:59:49.974Z,0.15
2018-02-08T09:00:49.960Z,0.21
2018-02-08T09:01:49.954Z,0.29
2018-02-08T09:02:49.671Z,0.28
2018-02-08T09:03:49.914Z,0.38
2018-02-08T09:04:49.887Z,0.33
2018-02-08T09:05:49.873Z,0.44
2018-02-08T09:06:49.864Z,0.6
2018-02-08T09:07:49.845Z,0.55
2018-02-08T09:08:49.319Z,0.61
2018-02-08T09:09:49.816Z,0.61
2018-02-08T09:10:49.789Z,0.62
2018-02-08T09:11:49.790Z,0.62
2018-02-08T09:12:49.506Z,0.7
2018-02-08T09:13:49.752Z,0.68
2018-02-08T09:14:49.735Z,0.78
2018-02-08T09:15:49.750Z,0.72
2018-02-08T09:16:49.692Z,0.68
2018-02-08T09:17:49.674Z,0.6
2018-02-08T09:18:49.662Z,0.57
2018-02-08T09:19:49.138Z,0.6
2018-02-08T09:20:49.628Z,0.65
2018-02-08T09:21:49.357Z,0.58
2018-02-08T09:22:49.595Z,0.73
2018-02-08T09:23:49.344Z,0.68
2018-02-08T09:24:49.319Z,0.73
2018-02-08T09:26:04.209Z,0.7
2018-02-08T09:26:49.530Z,0.72
2018-02-08T09:27:49.261Z,0.83
2018-02-08T09:28:49.498Z,0.83
2018-02-08T09:29:49.490Z,0.86
2018-02-08T09:30:49.472Z,0.9
2018-02-08T09:31:49.453Z,0.9
2018-02-08T09:32:49.439Z,0.87
2018-02-08T09:33:49.169Z,0.86
2018-02-08T09:34:49.411Z,0.84
2018-02-08T09:35:49.131Z,0.84
2018-02-08T09:36:49.373Z,0.86
2018-02-08T09:37:49.096Z,0.87
2018-02-08T09:38:48.840Z,0.9
2018-02-08T09:39:49.325Z,0.86
2018-02-08T09:40:49.302Z,0.86
2018-02-08T09:41:49.291Z,0.9
2018-02-08T09:42:49.275Z,0.72
2018-02-08T09:43:48.762Z,0.8
2018-02-08T09:44:49.240Z,0.79
2018-02-08T09:45:49.231Z,0.91
2018-02-08T09:46:49.207Z,1.11
2018-02-08T09:47:49.189Z,1.02
2018-02-08T09:48:48.922Z,1.14
2018-02-08T09:49:49.161Z,1.15
2018-02-08T09:50:48.894Z,1.16
2018-02-08T09:51:49.204Z,1.14
2018-02-08T09:52:48.863Z,1.16
2018-02-08T09:53:49.321Z,1.12
2018-02-08T09:54:49.079Z,1.14
2018-02-08T09:55:48.814Z,1.16
2018-02-08T09:56:49.072Z,1.22
2018-02-08T09:57:49.043Z,1.32
2018-02-08T09:58:49.014Z,1.24
2018-02-08T09:59:49.081Z,1.34
2018-02-08T10:00:48.740Z,1.3
2018-02-08T10:01:48.981Z,1.32
2018-02-08T10:02:48.961Z,1.33
2018-02-08T10:03:48.936Z,1.44
2018-02-08T10:04:48.683Z,1.4
2018-02-08T10:05:48.905Z,1.44
2018-02-08T10:06:48.893Z,1.44
2018-02-08T10:07:48.876Z,1.47
2018-02-08T10:08:48.867Z,1.48
2018-02-08T10:09:48.845Z,1.45
2018-02-08T10:10:48.830Z,1.42
2018-02-08T10:11:48.815Z,1.34
2018-02-08T10:12:48.553Z,1.36
2018-02-08T10:13:48.783Z,1.32
2018-02-08T10:14:48.782Z,1.32
2018-02-08T10:15:48.751Z,1.27
2018-02-08T10:16:48.754Z,1.34
2018-02-08T10:17:48.722Z,1.27
2018-02-08T10:18:48.719Z,1.3
2018-02-08T10:19:48.694Z,1.37
2018-02-08T10:20:48.670Z,1.37
2018-02-08T10:21:48.670Z,1.4
2018-02-08T10:22:48.679Z,1.36
2018-02-08T10:23:48.411Z,1.42
2018-02-08T10:24:48.359Z,1.5
2018-02-08T10:25:48.345Z,1.51
2018-02-08T10:26:48.883Z,1.48
2018-02-08T10:27:48.309Z,1.54
2018-02-08T10:28:48.295Z,1.45
2018-02-08T10:29:48.534Z,1.54
2018-02-08T10:30:48.547Z,1.5
2018-02-08T10:31:48.257Z,1.6
2018-02-08T10:32:48.235Z,1.68
2018-02-08T10:33:48.472Z,1.6
2018-02-08T10:34:48.459Z,1.54
2018-02-08T10:35:48.185Z,1.63
2018-02-08T10:36:48.426Z,1.76
2018-02-08T10:37:48.412Z,1.72
2018-02-08T10:38:48.139Z,1.79
2018-02-08T10:39:48.380Z,1.76
2018-02-08T10:40:48.108Z,1.79
2018-02-08T10:41:48.344Z,1.79
2018-02-08T10:42:48.337Z,1.81
2018-02-08T10:43:48.320Z,1.79
2018-02-08T10:44:48.311Z,1.81
2018-02-08T10:45:48.288Z,1.73
2018-02-08T10:46:48.271Z,1.8
2018-02-08T10:47:48.009Z,1.73
2018-02-08T10:48:47.743Z,1.79
2018-02-08T10:49:47.970Z,1.79
2018-02-08T10:50:48.227Z,1.87
2018-02-08T10:51:48.202Z,1.76
2018-02-08T10:52:48.181Z,1.84
2018-02-08T10:53:48.160Z,1.99
2018-02-08T10:54:48.143Z,1.99
2018-02-08T10:55:48.132Z,1.98
2018-02-08T10:56:48.117Z,1.9
2018-02-08T10:57:48.400Z,2
2018-02-08T10:58:47.832Z,1.99
2018-02-08T10:59:47.816Z,1.98
2018-02-08T11:00:48.058Z,2.02
2018-02-08T11:01:48.063Z,2.09
2018-02-08T11:02:48.021Z,2.12
2018-02-08T11:03:48.039Z,2.2
2018-02-08T11:04:47.738Z,2.17
2018-02-08T11:05:47.995Z,2.24
2018-02-08T11:06:47.969Z,2.23
2018-02-08T11:07:47.950Z,2.34
2018-02-08T11:08:47.931Z,2.21
2018-02-08T11:09:47.919Z,2.35
2018-02-08T11:10:47.900Z,2.34
2018-02-08T11:11:47.902Z,2.34
2018-02-08T11:12:47.616Z,2.41
2018-02-08T11:13:47.605Z,2.56
2018-02-08T11:14:47.376Z,2.49
2018-02-08T11:16:02.237Z,2.59
2018-02-08T11:16:47.558Z,2.59
2018-02-08T11:17:47.552Z,2.63
2018-02-08T11:18:47.787Z,2.71
2018-02-08T11:19:47.816Z,2.72
2018-02-08T11:20:47.762Z,2.79
2018-02-08T11:21:47.482Z,2.82
2018-02-08T11:22:47.722Z,2.81
2018-02-08T11:23:47.705Z,2.84
2018-02-08T11:24:47.698Z,2.84
2018-02-08T11:25:47.421Z,2.95
2018-02-08T11:26:47.424Z,2.97
2018-02-08T11:27:47.651Z,2.93
2018-02-08T11:28:47.934Z,2.9
2018-02-08T11:29:47.619Z,2.87
2018-02-08T11:30:47.099Z,2.9
2018-02-08T11:31:47.592Z,2.97
2018-02-08T11:32:47.574Z,2.93
2018-02-08T11:33:47.308Z,2.87
2018-02-08T11:34:47.545Z,2.85
2018-02-08T11:35:47.280Z,2.89
2018-02-08T11:36:47.286Z,2.84
2018-02-08T11:37:47.517Z,2.82
2018-02-08T11:38:47.233Z,2.85
2018-02-08T11:39:47.473Z,3.06
2018-02-08T11:40:47.462Z,3.03
2018-02-08T11:41:47.439Z,3.06
2018-02-08T11:42:47.460Z,3.14
2018-02-08T11:43:47.164Z,3.1
2018-02-08T11:44:47.401Z,3.2
2018-02-08T11:45:47.131Z,3.31
2018-02-08T11:46:47.371Z,3.21
2018-02-08T11:47:47.369Z,3.39
2018-02-08T11:48:47.084Z,3.28
2018-02-08T11:49:47.070Z,3.29
2018-02-08T11:50:47.061Z,3.31
2018-02-08T11:51:47.296Z,3.24
2018-02-08T11:52:47.030Z,3.2
2018-02-08T11:53:47.285Z,3.23
2018-02-08T11:54:47.269Z,3.13
2018-02-08T11:55:46.986Z,3.08
2018-02-08T11:56:47.221Z,3
2018-02-08T11:57:47.213Z,2.89
2018-02-08T11:58:47.194Z,2.9
2018-02-08T11:59:47.206Z,2.97
2018-02-08T12:00:47.172Z,2.97
2018-02-08T12:01:46.900Z,2.93
2018-02-08T12:02:47.139Z,3.02
2018-02-08T12:03:47.123Z,3.05
2018-02-08T12:04:47.107Z,3.11
2018-02-08T12:05:46.840Z,3.2
2018-02-08T12:06:47.094Z,3.26
2018-02-08T12:07:47.077Z,3.17
2018-02-08T12:08:46.814Z,3.29
2018-02-08T12:09:46.780Z,3.26
2018-02-08T12:10:46.768Z,3.23
2018-02-08T12:11:47.012Z,3.36
2018-02-08T12:12:47.005Z,3.35
2018-02-08T12:13:46.975Z,3.33
2018-02-08T12:14:46.968Z,3.21
2018-02-08T12:15:46.947Z,3.26
2018-02-08T12:16:46.936Z,3.35
2018-02-08T12:17:46.925Z,3.35
2018-02-08T12:18:46.933Z,3.48
2018-02-08T12:19:46.890Z,3.35
2018-02-08T12:20:46.884Z,3.42
2018-02-08T12:21:46.864Z,3.39
2018-02-08T12:22:46.595Z,3.39
2018-02-08T12:23:46.834Z,3.36
2018-02-08T12:24:46.578Z,3.31
2018-02-08T12:25:46.821Z,3.39
2018-02-08T12:26:46.552Z,3.21
2018-02-08T12:27:46.782Z,3.26
2018-02-08T12:28:46.762Z,3.26
2018-02-08T12:29:46.494Z,3.4
2018-02-08T12:30:46.479Z,3.26
2018-02-08T12:31:46.465Z,3.2
2018-02-08T12:32:46.196Z,3.28
2018-02-08T12:33:46.691Z,3.23
2018-02-08T12:34:46.672Z,3.31
2018-02-08T12:35:46.417Z,3.35
2018-02-08T12:36:46.713Z,3.23
2018-02-08T12:37:46.376Z,3.29
2018-02-08T12:38:46.622Z,3.21
2018-02-08T12:39:46.611Z,3.2
2018-02-08T12:40:46.350Z,3.2
2018-02-08T12:41:46.330Z,3.06
2018-02-08T12:42:46.581Z,3.2
2018-02-08T12:43:46.304Z,3.1
2018-02-08T12:44:46.275Z,3.21
2018-02-08T12:45:46.281Z,3.26
2018-02-08T12:46:46.538Z,3.32
2018-02-08T12:47:46.517Z,3.28
2018-02-08T12:48:46.226Z,3.32
2018-02-08T12:49:46.218Z,3.36
2018-02-08T12:50:46.464Z,3.36
2018-02-08T12:51:45.923Z,3.26
2018-02-08T12:52:46.431Z,3.23
2018-02-08T12:53:46.428Z,3.29
2018-02-08T12:54:46.387Z,3.31
2018-02-08T12:55:46.379Z,3.35
2018-02-08T12:56:46.363Z,3.21
2018-02-08T12:57:46.086Z,3.28
2018-02-08T12:58:45.818Z,3.36
2018-02-08T12:59:46.327Z,3.33
2018-02-08T13:00:46.051Z,3.32
2018-02-08T13:01:46.282Z,3.35
2018-02-08T13:02:46.267Z,3.29
2018-02-08T13:03:46.249Z,3.23
2018-02-08T13:04:46.239Z,3.24
2018-02-08T13:05:46.231Z,3.2